sensor_id;sensor_type;location;lat;lon;timestamp;P1;durP1;ratioP1;P2;durP2;ratioP2
4001;SDS011;2015;48.670;9.060;2023-08-01T00:01:03;5.40;;;4.90;;
4001;SDS011;2015;48.670;9.060;2023-08-01T00:03:35;6.73;;;5.03;;
4001;SDS011;2015;48.670;9.060;2023-08-01T00:06:07;10.43;;;5.37;;
4001;SDS011;2015;48.670;9.060;2023-08-01T00:08:38;7.53;;;5.00;;
4001;SDS011;2015;48.670;9.060;2023-08-01T00:11:10;5.70;;;5.20;;
4001;SDS011;2015;48.670;9.060;2023-08-01T00:13:42;7.00;;;4.73;;
4001;SDS011;2015;48.670;9.060;2023-08-01T00:16:14;5.33;;;4.80;;
4001;SDS011;2015;48.670;9.060;2023-08-01T00:18:46;6.20;;;5.07;;
4001;SDS011;2015;48.670;9.060;2023-08-01T00:21:18;7.50;;;6.17;;
4001;SDS011;2015;48.670;9.060;2023-08-01T00:23:49;4.77;;;4.23;;
4001;SDS011;2015;48.670;9.060;2023-08-01T00:26:23;6.03;;;5.43;;
4001;SDS011;2015;48.670;9.060;2023-08-01T00:28:54;7.53;;;5.17;;
4001;SDS011;2015;48.670;9.060;2023-08-01T00:31:26;6.17;;;5.57;;
4001;SDS011;2015;48.670;9.060;2023-08-01T00:33:58;5.80;;;5.20;;
4001;SDS011;2015;48.670;9.060;2023-08-01T00:36:30;6.17;;;5.60;;
4001;SDS011;2015;48.670;9.060;2023-08-01T00:39:01;6.77;;;5.47;;
4001;SDS011;2015;48.670;9.060;2023-08-01T00:41:33;4.73;;;4.33;;
4001;SDS011;2015;48.670;9.060;2023-08-01T00:44:05;6.00;;;5.03;;
4001;SDS011;2015;48.670;9.060;2023-08-01T00:46:37;6.53;;;5.70;;
4001;SDS011;2015;48.670;9.060;2023-08-01T00:49:09;5.23;;;4.83;;
4001;SDS011;2015;48.670;9.060;2023-08-01T00:51:41;6.33;;;4.70;;
4001;SDS011;2015;48.670;9.060;2023-08-01T00:54:14;5.53;;;5.07;;
4001;SDS011;2015;48.670;9.060;2023-08-01T00:56:46;4.97;;;4.57;;
4001;SDS011;2015;48.670;9.060;2023-08-01T00:59:18;6.95;;;5.75;;
4001;SDS011;2015;48.670;9.060;2023-08-01T01:01:49;7.97;;;5.27;;
4001;SDS011;2015;48.670;9.060;2023-08-01T01:04:21;6.80;;;5.93;;
4001;SDS011;2015;48.670;9.060;2023-08-01T01:07:00;5.13;;;4.63;;
4001;SDS011;2015;48.670;9.060;2023-08-01T01:09:34;8.00;;;4.93;;
4001;SDS011;2015;48.670;9.060;2023-08-01T01:12:06;6.27;;;5.67;;
4001;SDS011;2015;48.670;9.060;2023-08-01T01:14:38;5.80;;;5.23;;
4001;SDS011;2015;48.670;9.060;2023-08-01T01:17:10;5.87;;;5.23;;
4001;SDS011;2015;48.670;9.060;2023-08-01T01:19:41;6.83;;;5.23;;
4001;SDS011;2015;48.670;9.060;2023-08-01T01:22:13;5.90;;;5.20;;
4001;SDS011;2015;48.670;9.060;2023-08-01T01:24:47;5.50;;;5.00;;
4001;SDS011;2015;48.670;9.060;2023-08-01T01:27:19;6.03;;;5.07;;
4001;SDS011;2015;48.670;9.060;2023-08-01T01:29:52;6.33;;;5.83;;
4001;SDS011;2015;48.670;9.060;2023-08-01T01:32:24;7.13;;;5.43;;
4001;SDS011;2015;48.670;9.060;2023-08-01T01:34:56;6.30;;;4.87;;
4001;SDS011;2015;48.670;9.060;2023-08-01T01:37:28;6.63;;;5.90;;
4001;SDS011;2015;48.670;9.060;2023-08-01T01:39:59;10.10;;;5.50;;
4001;SDS011;2015;48.670;9.060;2023-08-01T01:42:31;5.17;;;4.87;;
4001;SDS011;2015;48.670;9.060;2023-08-01T01:45:03;8.33;;;6.37;;
4001;SDS011;2015;48.670;9.060;2023-08-01T01:47:35;5.43;;;4.93;;
4001;SDS011;2015;48.670;9.060;2023-08-01T01:50:07;6.10;;;5.53;;
4001;SDS011;2015;48.670;9.060;2023-08-01T01:52:39;9.07;;;5.90;;
4001;SDS011;2015;48.670;9.060;2023-08-01T01:55:11;6.73;;;6.00;;
4001;SDS011;2015;48.670;9.060;2023-08-01T01:57:43;5.00;;;4.60;;
4001;SDS011;2015;48.670;9.060;2023-08-01T02:00:15;6.20;;;5.60;;
4001;SDS011;2015;48.670;9.060;2023-08-01T02:02:46;6.17;;;5.20;;
4001;SDS011;2015;48.670;9.060;2023-08-01T02:05:18;6.22;;;5.22;;
4001;SDS011;2015;48.670;9.060;2023-08-01T02:07:50;5.50;;;5.10;;
4001;SDS011;2015;48.670;9.060;2023-08-01T02:10:22;7.43;;;5.80;;
4001;SDS011;2015;48.670;9.060;2023-08-01T02:12:53;5.57;;;5.07;;
4001;SDS011;2015;48.670;9.060;2023-08-01T02:15:25;6.13;;;5.53;;
4001;SDS011;2015;48.670;9.060;2023-08-01T02:17:57;5.63;;;4.97;;
4001;SDS011;2015;48.670;9.060;2023-08-01T02:20:31;5.40;;;4.88;;
4001;SDS011;2015;48.670;9.060;2023-08-01T02:23:03;6.13;;;5.63;;
4001;SDS011;2015;48.670;9.060;2023-08-01T02:25:41;6.00;;;5.50;;
4001;SDS011;2015;48.670;9.060;2023-08-01T02:28:13;5.60;;;5.10;;
4001;SDS011;2015;48.670;9.060;2023-08-01T02:30:45;5.40;;;4.90;;
4001;SDS011;2015;48.670;9.060;2023-08-01T02:33:17;5.27;;;4.77;;
4001;SDS011;2015;48.670;9.060;2023-08-01T02:35:49;5.90;;;5.30;;
4001;SDS011;2015;48.670;9.060;2023-08-01T02:38:20;6.20;;;5.00;;
4001;SDS011;2015;48.670;9.060;2023-08-01T02:40:52;7.27;;;5.40;;
4001;SDS011;2015;48.670;9.060;2023-08-01T02:43:24;6.03;;;5.17;;
4001;SDS011;2015;48.670;9.060;2023-08-01T02:45:55;7.83;;;5.20;;
4001;SDS011;2015;48.670;9.060;2023-08-01T02:48:27;5.47;;;4.60;;
4001;SDS011;2015;48.670;9.060;2023-08-01T02:50:59;6.83;;;5.90;;
4001;SDS011;2015;48.670;9.060;2023-08-01T02:53:31;6.73;;;6.17;;
4001;SDS011;2015;48.670;9.060;2023-08-01T02:56:02;5.30;;;4.70;;
4001;SDS011;2015;48.670;9.060;2023-08-01T02:58:37;7.40;;;6.43;;
4001;SDS011;2015;48.670;9.060;2023-08-01T03:01:09;6.60;;;5.80;;
4001;SDS011;2015;48.670;9.060;2023-08-01T03:03:41;5.60;;;5.03;;
4001;SDS011;2015;48.670;9.060;2023-08-01T03:06:13;6.13;;;5.53;;
4001;SDS011;2015;48.670;9.060;2023-08-01T03:08:45;6.20;;;5.37;;
4001;SDS011;2015;48.670;9.060;2023-08-01T03:11:17;7.50;;;4.97;;
4001;SDS011;2015;48.670;9.060;2023-08-01T03:13:49;5.93;;;5.53;;
4001;SDS011;2015;48.670;9.060;2023-08-01T03:16:21;5.00;;;4.60;;
4001;SDS011;2015;48.670;9.060;2023-08-01T03:18:53;5.20;;;4.70;;
4001;SDS011;2015;48.670;9.060;2023-08-01T03:21:25;6.20;;;5.00;;
4001;SDS011;2015;48.670;9.060;2023-08-01T03:23:57;8.23;;;5.40;;
4001;SDS011;2015;48.670;9.060;2023-08-01T03:26:29;6.30;;;4.80;;
4001;SDS011;2015;48.670;9.060;2023-08-01T03:29:01;4.80;;;4.33;;
4001;SDS011;2015;48.670;9.060;2023-08-01T03:31:33;4.73;;;4.43;;
4001;SDS011;2015;48.670;9.060;2023-08-01T03:34:05;5.37;;;4.87;;
4001;SDS011;2015;48.670;9.060;2023-08-01T03:36:40;7.93;;;5.30;;
4001;SDS011;2015;48.670;9.060;2023-08-01T03:39:12;10.43;;;4.67;;
4001;SDS011;2015;48.670;9.060;2023-08-01T03:41:44;5.85;;;5.45;;
4001;SDS011;2015;48.670;9.060;2023-08-01T03:44:16;5.50;;;5.00;;
4001;SDS011;2015;48.670;9.060;2023-08-01T03:46:48;7.67;;;6.40;;
4001;SDS011;2015;48.670;9.060;2023-08-01T03:49:20;4.70;;;4.30;;
4001;SDS011;2015;48.670;9.060;2023-08-01T03:51:51;5.07;;;4.57;;
4001;SDS011;2015;48.670;9.060;2023-08-01T03:54:23;9.63;;;5.50;;
4001;SDS011;2015;48.670;9.060;2023-08-01T03:56:55;5.27;;;4.77;;
4001;SDS011;2015;48.670;9.060;2023-08-01T03:59:26;4.57;;;4.17;;
4001;SDS011;2015;48.670;9.060;2023-08-01T04:01:58;4.90;;;4.50;;
4001;SDS011;2015;48.670;9.060;2023-08-01T04:04:30;5.47;;;5.00;;
4001;SDS011;2015;48.670;9.060;2023-08-01T04:07:02;6.67;;;4.70;;
4001;SDS011;2015;48.670;9.060;2023-08-01T04:09:34;6.53;;;4.63;;
4001;SDS011;2015;48.670;9.060;2023-08-01T04:12:06;4.70;;;4.30;;
4001;SDS011;2015;48.670;9.060;2023-08-01T04:14:38;5.38;;;4.88;;
4001;SDS011;2015;48.670;9.060;2023-08-01T04:17:10;4.53;;;4.17;;
4001;SDS011;2015;48.670;9.060;2023-08-01T04:19:41;4.50;;;4.20;;
4001;SDS011;2015;48.670;9.060;2023-08-01T04:22:13;5.27;;;4.87;;
4001;SDS011;2015;48.670;9.060;2023-08-01T04:24:45;6.47;;;5.87;;
4001;SDS011;2015;48.670;9.060;2023-08-01T04:27:16;5.70;;;5.00;;
4001;SDS011;2015;48.670;9.060;2023-08-01T04:29:48;5.17;;;4.67;;
4001;SDS011;2015;48.670;9.060;2023-08-01T04:32:20;5.00;;;4.60;;
4001;SDS011;2015;48.670;9.060;2023-08-01T04:34:52;5.67;;;4.50;;
4001;SDS011;2015;48.670;9.060;2023-08-01T04:37:24;5.23;;;4.70;;
4001;SDS011;2015;48.670;9.060;2023-08-01T04:39:56;5.20;;;4.60;;
4001;SDS011;2015;48.670;9.060;2023-08-01T04:42:28;10.57;;;5.13;;
4001;SDS011;2015;48.670;9.060;2023-08-01T04:45:00;5.80;;;5.40;;
4001;SDS011;2015;48.670;9.060;2023-08-01T04:47:32;5.15;;;4.20;;
4001;SDS011;2015;48.670;9.060;2023-08-01T04:50:04;5.33;;;4.77;;
4001;SDS011;2015;48.670;9.060;2023-08-01T04:52:36;4.63;;;4.23;;
4001;SDS011;2015;48.670;9.060;2023-08-01T04:55:08;4.90;;;4.50;;
4001;SDS011;2015;48.670;9.060;2023-08-01T04:57:40;5.70;;;5.20;;
4001;SDS011;2015;48.670;9.060;2023-08-01T05:00:11;4.80;;;4.20;;
4001;SDS011;2015;48.670;9.060;2023-08-01T05:02:43;5.90;;;4.75;;
4001;SDS011;2015;48.670;9.060;2023-08-01T05:05:15;6.07;;;5.20;;
4001;SDS011;2015;48.670;9.060;2023-08-01T05:07:47;8.20;;;5.33;;
4001;SDS011;2015;48.670;9.060;2023-08-01T05:10:19;5.43;;;5.03;;
4001;SDS011;2015;48.670;9.060;2023-08-01T05:12:50;7.10;;;5.47;;
4001;SDS011;2015;48.670;9.060;2023-08-01T05:15:22;4.77;;;4.37;;
4001;SDS011;2015;48.670;9.060;2023-08-01T05:17:54;6.80;;;6.20;;
4001;SDS011;2015;48.670;9.060;2023-08-01T05:20:27;6.13;;;4.90;;
4001;SDS011;2015;48.670;9.060;2023-08-01T05:23:01;12.40;;;6.13;;
4001;SDS011;2015;48.670;9.060;2023-08-01T05:25:33;6.00;;;5.50;;
4001;SDS011;2015;48.670;9.060;2023-08-01T05:28:05;5.60;;;5.10;;
4001;SDS011;2015;48.670;9.060;2023-08-01T05:30:37;6.40;;;5.80;;
4001;SDS011;2015;48.670;9.060;2023-08-01T05:33:09;5.90;;;5.33;;
4001;SDS011;2015;48.670;9.060;2023-08-01T05:35:40;6.17;;;5.57;;
4001;SDS011;2015;48.670;9.060;2023-08-01T05:38:12;4.90;;;4.47;;
4001;SDS011;2015;48.670;9.060;2023-08-01T05:40:44;6.63;;;5.77;;
4001;SDS011;2015;48.670;9.060;2023-08-01T05:43:16;6.00;;;5.50;;
4001;SDS011;2015;48.670;9.060;2023-08-01T05:45:48;6.30;;;5.70;;
4001;SDS011;2015;48.670;9.060;2023-08-01T05:48:23;8.13;;;5.37;;
4001;SDS011;2015;48.670;9.060;2023-08-01T05:50:55;5.57;;;5.07;;
4001;SDS011;2015;48.670;9.060;2023-08-01T05:53:27;7.60;;;5.30;;
4001;SDS011;2015;48.670;9.060;2023-08-01T05:55:59;7.30;;;5.60;;
4001;SDS011;2015;48.670;9.060;2023-08-01T05:58:31;5.30;;;4.80;;
4001;SDS011;2015;48.670;9.060;2023-08-01T06:01:03;7.67;;;4.90;;
4001;SDS011;2015;48.670;9.060;2023-08-01T06:03:35;11.10;;;5.67;;
4001;SDS011;2015;48.670;9.060;2023-08-01T06:06:07;6.03;;;4.80;;
4001;SDS011;2015;48.670;9.060;2023-08-01T06:08:38;6.90;;;5.30;;
4001;SDS011;2015;48.670;9.060;2023-08-01T06:11:10;5.23;;;4.73;;
4001;SDS011;2015;48.670;9.060;2023-08-01T06:13:42;4.97;;;4.57;;
4001;SDS011;2015;48.670;9.060;2023-08-01T06:16:14;5.07;;;4.67;;
4001;SDS011;2015;48.670;9.060;2023-08-01T06:18:45;6.50;;;5.23;;
4001;SDS011;2015;48.670;9.060;2023-08-01T06:21:17;5.70;;;4.90;;
4001;SDS011;2015;48.670;9.060;2023-08-01T06:23:50;8.13;;;4.60;;
4001;SDS011;2015;48.670;9.060;2023-08-01T06:26:21;5.80;;;5.30;;
4001;SDS011;2015;48.670;9.060;2023-08-01T06:28:53;7.27;;;5.30;;
4001;SDS011;2015;48.670;9.060;2023-08-01T06:31:25;6.60;;;5.30;;
4001;SDS011;2015;48.670;9.060;2023-08-01T06:33:57;7.57;;;4.93;;
4001;SDS011;2015;48.670;9.060;2023-08-01T06:36:29;6.30;;;5.60;;
4001;SDS011;2015;48.670;9.060;2023-08-01T06:39:00;8.30;;;5.37;;
4001;SDS011;2015;48.670;9.060;2023-08-01T06:41:32;4.90;;;4.50;;
4001;SDS011;2015;48.670;9.060;2023-08-01T06:44:04;5.50;;;5.00;;
4001;SDS011;2015;48.670;9.060;2023-08-01T06:46:35;5.43;;;5.13;;
4001;SDS011;2015;48.670;9.060;2023-08-01T06:49:07;5.53;;;5.00;;
4001;SDS011;2015;48.670;9.060;2023-08-01T06:51:39;7.80;;;5.07;;
4001;SDS011;2015;48.670;9.060;2023-08-01T06:54:13;5.27;;;4.80;;
4001;SDS011;2015;48.670;9.060;2023-08-01T06:56:44;5.93;;;5.43;;
4001;SDS011;2015;48.670;9.060;2023-08-01T06:59:18;6.87;;;5.47;;
4001;SDS011;2015;48.670;9.060;2023-08-01T07:01:50;5.50;;;4.70;;
4001;SDS011;2015;48.670;9.060;2023-08-01T07:04:22;5.87;;;5.20;;
4001;SDS011;2015;48.670;9.060;2023-08-01T07:06:54;5.20;;;4.70;;
4001;SDS011;2015;48.670;9.060;2023-08-01T07:09:26;7.27;;;5.10;;
4001;SDS011;2015;48.670;9.060;2023-08-01T07:11:58;7.43;;;6.30;;
4001;SDS011;2015;48.670;9.060;2023-08-01T07:14:31;8.27;;;5.90;;
4001;SDS011;2015;48.670;9.060;2023-08-01T07:17:02;6.43;;;5.40;;
4001;SDS011;2015;48.670;9.060;2023-08-01T07:19:34;7.90;;;6.53;;
4001;SDS011;2015;48.670;9.060;2023-08-01T07:22:06;12.43;;;6.73;;
4001;SDS011;2015;48.670;9.060;2023-08-01T07:24:37;6.63;;;5.90;;
4001;SDS011;2015;48.670;9.060;2023-08-01T07:27:09;6.73;;;6.13;;
4001;SDS011;2015;48.670;9.060;2023-08-01T07:29:41;6.97;;;5.90;;
4001;SDS011;2015;48.670;9.060;2023-08-01T07:32:12;7.00;;;6.40;;
4001;SDS011;2015;48.670;9.060;2023-08-01T07:34:45;6.07;;;5.47;;
4001;SDS011;2015;48.670;9.060;2023-08-01T07:37:16;6.40;;;5.77;;
4001;SDS011;2015;48.670;9.060;2023-08-01T07:39:49;7.27;;;4.87;;
4001;SDS011;2015;48.670;9.060;2023-08-01T07:42:21;5.20;;;4.73;;
4001;SDS011;2015;48.670;9.060;2023-08-01T07:44:52;5.03;;;4.32;;
4001;SDS011;2015;48.670;9.060;2023-08-01T07:47:25;4.80;;;4.40;;
4001;SDS011;2015;48.670;9.060;2023-08-01T07:49:56;4.47;;;3.80;;
4001;SDS011;2015;48.670;9.060;2023-08-01T07:52:28;5.93;;;5.33;;
4001;SDS011;2015;48.670;9.060;2023-08-01T07:55:00;4.30;;;4.00;;
4001;SDS011;2015;48.670;9.060;2023-08-01T07:57:32;5.13;;;4.63;;
4001;SDS011;2015;48.670;9.060;2023-08-01T08:00:04;5.03;;;4.53;;
4001;SDS011;2015;48.670;9.060;2023-08-01T08:02:36;5.10;;;4.63;;
4001;SDS011;2015;48.670;9.060;2023-08-01T08:05:08;4.77;;;4.47;;
4001;SDS011;2015;48.670;9.060;2023-08-01T08:07:40;5.37;;;4.30;;
4001;SDS011;2015;48.670;9.060;2023-08-01T08:10:12;5.27;;;4.87;;
4001;SDS011;2015;48.670;9.060;2023-08-01T08:12:43;5.73;;;4.53;;
4001;SDS011;2015;48.670;9.060;2023-08-01T08:15:16;5.00;;;4.50;;
4001;SDS011;2015;48.670;9.060;2023-08-01T08:17:48;7.47;;;4.70;;
4001;SDS011;2015;48.670;9.060;2023-08-01T08:20:20;6.07;;;4.87;;
4001;SDS011;2015;48.670;9.060;2023-08-01T08:22:52;4.83;;;4.43;;
4001;SDS011;2015;48.670;9.060;2023-08-01T08:25:24;6.10;;;5.07;;
4001;SDS011;2015;48.670;9.060;2023-08-01T08:27:55;6.73;;;5.83;;
4001;SDS011;2015;48.670;9.060;2023-08-01T08:30:27;6.10;;;4.93;;
4001;SDS011;2015;48.670;9.060;2023-08-01T08:32:59;5.23;;;4.83;;
4001;SDS011;2015;48.670;9.060;2023-08-01T08:35:35;7.40;;;5.00;;
4001;SDS011;2015;48.670;9.060;2023-08-01T08:38:07;5.57;;;5.07;;
4001;SDS011;2015;48.670;9.060;2023-08-01T08:40:46;5.50;;;4.60;;
4001;SDS011;2015;48.670;9.060;2023-08-01T08:43:38;5.10;;;4.43;;
4001;SDS011;2015;48.670;9.060;2023-08-01T08:46:12;5.67;;;5.10;;
4001;SDS011;2015;48.670;9.060;2023-08-01T08:48:47;4.50;;;4.10;;
4001;SDS011;2015;48.670;9.060;2023-08-01T08:51:19;6.23;;;4.77;;
4001;SDS011;2015;48.670;9.060;2023-08-01T08:53:53;5.67;;;4.17;;
4001;SDS011;2015;48.670;9.060;2023-08-01T08:56:25;3.80;;;3.50;;
4001;SDS011;2015;48.670;9.060;2023-08-01T08:58:59;4.53;;;4.23;;
4001;SDS011;2015;48.670;9.060;2023-08-01T09:01:31;4.33;;;3.93;;
4001;SDS011;2015;48.670;9.060;2023-08-01T09:04:04;3.80;;;3.50;;
4001;SDS011;2015;48.670;9.060;2023-08-01T09:06:40;4.85;;;3.70;;
4001;SDS011;2015;48.670;9.060;2023-08-01T09:09:22;3.87;;;3.57;;
4001;SDS011;2015;48.670;9.060;2023-08-01T09:11:57;5.17;;;4.67;;
4001;SDS011;2015;48.670;9.060;2023-08-01T09:14:30;3.50;;;3.20;;
4001;SDS011;2015;48.670;9.060;2023-08-01T09:17:07;3.00;;;2.80;;
4001;SDS011;2015;48.670;9.060;2023-08-01T09:19:39;3.20;;;2.47;;
4001;SDS011;2015;48.670;9.060;2023-08-01T09:22:12;2.53;;;2.33;;
4001;SDS011;2015;48.670;9.060;2023-08-01T09:24:51;3.37;;;3.17;;
4001;SDS011;2015;48.670;9.060;2023-08-01T09:27:32;2.73;;;2.50;;
4001;SDS011;2015;48.670;9.060;2023-08-01T09:30:08;2.23;;;2.13;;
4001;SDS011;2015;48.670;9.060;2023-08-01T09:32:53;2.80;;;2.60;;
4001;SDS011;2015;48.670;9.060;2023-08-01T09:35:25;2.90;;;2.70;;
4001;SDS011;2015;48.670;9.060;2023-08-01T09:37:57;2.60;;;2.40;;
4001;SDS011;2015;48.670;9.060;2023-08-01T09:40:38;1.90;;;1.80;;
4001;SDS011;2015;48.670;9.060;2023-08-01T09:43:11;2.30;;;2.10;;
4001;SDS011;2015;48.670;9.060;2023-08-01T09:45:53;2.50;;;2.30;;
4001;SDS011;2015;48.670;9.060;2023-08-01T09:48:26;4.13;;;2.43;;
4001;SDS011;2015;48.670;9.060;2023-08-01T09:51:05;4.77;;;2.73;;
4001;SDS011;2015;48.670;9.060;2023-08-01T09:53:52;3.17;;;2.97;;
4001;SDS011;2015;48.670;9.060;2023-08-01T09:56:26;2.40;;;2.20;;
4001;SDS011;2015;48.670;9.060;2023-08-01T09:58:59;2.53;;;2.10;;
4001;SDS011;2015;48.670;9.060;2023-08-01T10:01:32;2.37;;;2.17;;
4001;SDS011;2015;48.670;9.060;2023-08-01T10:04:04;1.67;;;1.53;;
4001;SDS011;2015;48.670;9.060;2023-08-01T10:06:41;3.00;;;1.50;;
4001;SDS011;2015;48.670;9.060;2023-08-01T10:09:17;1.10;;;1.00;;
4001;SDS011;2015;48.670;9.060;2023-08-01T10:11:49;1.48;;;1.20;;
4001;SDS011;2015;48.670;9.060;2023-08-01T10:14:22;2.47;;;1.70;;
4001;SDS011;2015;48.670;9.060;2023-08-01T10:16:55;1.57;;;1.47;;
4001;SDS011;2015;48.670;9.060;2023-08-01T10:19:28;1.73;;;1.63;;
4001;SDS011;2015;48.670;9.060;2023-08-01T10:22:04;1.60;;;1.50;;
4001;SDS011;2015;48.670;9.060;2023-08-01T10:24:37;1.60;;;1.50;;
4001;SDS011;2015;48.670;9.060;2023-08-01T10:27:11;1.60;;;1.20;;
4001;SDS011;2015;48.670;9.060;2023-08-01T10:29:44;2.10;;;1.90;;
4001;SDS011;2015;48.670;9.060;2023-08-01T10:32:33;1.50;;;1.40;;
4001;SDS011;2015;48.670;9.060;2023-08-01T10:35:06;2.63;;;1.30;;
4001;SDS011;2015;48.670;9.060;2023-08-01T10:37:42;1.30;;;1.20;;
4001;SDS011;2015;48.670;9.060;2023-08-01T10:40:14;1.43;;;1.33;;
4001;SDS011;2015;48.670;9.060;2023-08-01T10:42:46;1.77;;;1.50;;
4001;SDS011;2015;48.670;9.060;2023-08-01T10:45:19;1.30;;;1.00;;
4001;SDS011;2015;48.670;9.060;2023-08-01T10:47:52;1.37;;;0.87;;
4001;SDS011;2015;48.670;9.060;2023-08-01T10:50:24;1.10;;;1.00;;
4001;SDS011;2015;48.670;9.060;2023-08-01T10:53:03;1.20;;;1.10;;
4001;SDS011;2015;48.670;9.060;2023-08-01T10:55:40;1.47;;;1.37;;
4001;SDS011;2015;48.670;9.060;2023-08-01T10:58:16;1.27;;;1.17;;
4001;SDS011;2015;48.670;9.060;2023-08-01T11:00:56;1.73;;;1.30;;
4001;SDS011;2015;48.670;9.060;2023-08-01T11:03:39;1.20;;;1.10;;
4001;SDS011;2015;48.670;9.060;2023-08-01T11:06:11;1.30;;;1.20;;
4001;SDS011;2015;48.670;9.060;2023-08-01T11:08:43;1.20;;;0.90;;
4001;SDS011;2015;48.670;9.060;2023-08-01T11:11:15;1.40;;;1.30;;
4001;SDS011;2015;48.670;9.060;2023-08-01T11:13:52;1.67;;;1.00;;
4001;SDS011;2015;48.670;9.060;2023-08-01T11:16:24;1.35;;;1.25;;
4001;SDS011;2015;48.670;9.060;2023-08-01T11:18:57;1.37;;;1.27;;
4001;SDS011;2015;48.670;9.060;2023-08-01T11:21:28;1.30;;;1.20;;
4001;SDS011;2015;48.670;9.060;2023-08-01T11:24:05;1.30;;;1.20;;
4001;SDS011;2015;48.670;9.060;2023-08-01T11:26:45;1.60;;;1.50;;
4001;SDS011;2015;48.670;9.060;2023-08-01T11:29:18;1.67;;;1.57;;
4001;SDS011;2015;48.670;9.060;2023-08-01T11:31:54;1.77;;;1.67;;
4001;SDS011;2015;48.670;9.060;2023-08-01T11:34:38;1.30;;;1.20;;
4001;SDS011;2015;48.670;9.060;2023-08-01T11:37:15;1.50;;;1.40;;
4001;SDS011;2015;48.670;9.060;2023-08-01T11:39:49;1.53;;;1.43;;
4001;SDS011;2015;48.670;9.060;2023-08-01T11:42:23;1.87;;;1.50;;
4001;SDS011;2015;48.670;9.060;2023-08-01T11:44:54;1.40;;;1.30;;
4001;SDS011;2015;48.670;9.060;2023-08-01T11:47:47;1.73;;;1.63;;
4001;SDS011;2015;48.670;9.060;2023-08-01T11:50:23;1.60;;;1.50;;
4001;SDS011;2015;48.670;9.060;2023-08-01T11:52:56;3.87;;;2.17;;
4001;SDS011;2015;48.670;9.060;2023-08-01T11:55:27;2.00;;;1.80;;
4001;SDS011;2015;48.670;9.060;2023-08-01T11:57:59;1.93;;;1.50;;
4001;SDS011;2015;48.670;9.060;2023-08-01T12:00:31;1.70;;;1.60;;
4001;SDS011;2015;48.670;9.060;2023-08-01T12:03:07;2.07;;;1.97;;
4001;SDS011;2015;48.670;9.060;2023-08-01T12:05:44;1.57;;;1.47;;
4001;SDS011;2015;48.670;9.060;2023-08-01T12:08:18;1.93;;;1.83;;
4001;SDS011;2015;48.670;9.060;2023-08-01T12:10:50;1.70;;;1.60;;
4001;SDS011;2015;48.670;9.060;2023-08-01T12:13:22;2.40;;;1.70;;
4001;SDS011;2015;48.670;9.060;2023-08-01T12:15:55;1.97;;;1.87;;
4001;SDS011;2015;48.670;9.060;2023-08-01T12:18:28;1.80;;;1.70;;
4001;SDS011;2015;48.670;9.060;2023-08-01T12:21:03;1.43;;;1.33;;
4001;SDS011;2015;48.670;9.060;2023-08-01T12:23:36;1.97;;;1.87;;
4001;SDS011;2015;48.670;9.060;2023-08-01T12:26:08;2.37;;;1.70;;
4001;SDS011;2015;48.670;9.060;2023-08-01T12:28:40;2.87;;;2.60;;
4001;SDS011;2015;48.670;9.060;2023-08-01T12:31:15;3.13;;;2.30;;
4001;SDS011;2015;48.670;9.060;2023-08-01T12:33:48;2.20;;;2.00;;
4001;SDS011;2015;48.670;9.060;2023-08-01T12:36:20;2.37;;;1.90;;
4001;SDS011;2015;48.670;9.060;2023-08-01T12:38:52;2.40;;;2.17;;
4001;SDS011;2015;48.670;9.060;2023-08-01T12:41:24;2.23;;;1.83;;
4001;SDS011;2015;48.670;9.060;2023-08-01T12:43:55;2.10;;;2.00;;
4001;SDS011;2015;48.670;9.060;2023-08-01T12:46:27;1.87;;;1.70;;
4001;SDS011;2015;48.670;9.060;2023-08-01T12:48:59;3.33;;;1.87;;
4001;SDS011;2015;48.670;9.060;2023-08-01T12:51:32;2.37;;;1.83;;
4001;SDS011;2015;48.670;9.060;2023-08-01T12:54:03;1.70;;;1.50;;
4001;SDS011;2015;48.670;9.060;2023-08-01T12:56:35;2.07;;;1.87;;
4001;SDS011;2015;48.670;9.060;2023-08-01T12:59:08;1.87;;;1.60;;
4001;SDS011;2015;48.670;9.060;2023-08-01T13:01:40;1.83;;;1.73;;
4001;SDS011;2015;48.670;9.060;2023-08-01T13:04:12;2.00;;;1.90;;
4001;SDS011;2015;48.670;9.060;2023-08-01T13:06:44;6.33;;;2.00;;
4001;SDS011;2015;48.670;9.060;2023-08-01T13:09:15;2.97;;;2.77;;
4001;SDS011;2015;48.670;9.060;2023-08-01T13:11:48;2.80;;;2.17;;
4001;SDS011;2015;48.670;9.060;2023-08-01T13:14:20;1.97;;;1.87;;
4001;SDS011;2015;48.670;9.060;2023-08-01T13:16:53;2.20;;;1.57;;
4001;SDS011;2015;48.670;9.060;2023-08-01T13:19:25;2.07;;;1.97;;
4001;SDS011;2015;48.670;9.060;2023-08-01T13:21:57;2.63;;;2.43;;
4001;SDS011;2015;48.670;9.060;2023-08-01T13:24:28;2.40;;;2.10;;
4001;SDS011;2015;48.670;9.060;2023-08-01T13:27:00;2.50;;;1.90;;
4001;SDS011;2015;48.670;9.060;2023-08-01T13:29:32;2.50;;;2.03;;
4001;SDS011;2015;48.670;9.060;2023-08-01T13:32:04;1.90;;;1.50;;
4001;SDS011;2015;48.670;9.060;2023-08-01T13:34:36;2.17;;;1.97;;
4001;SDS011;2015;48.670;9.060;2023-08-01T13:37:08;1.83;;;1.70;;
4001;SDS011;2015;48.670;9.060;2023-08-01T13:39:40;1.93;;;1.83;;
4001;SDS011;2015;48.670;9.060;2023-08-01T13:42:12;4.73;;;2.20;;
4001;SDS011;2015;48.670;9.060;2023-08-01T13:44:44;2.00;;;1.80;;
4001;SDS011;2015;48.670;9.060;2023-08-01T13:47:15;2.30;;;2.20;;
4001;SDS011;2015;48.670;9.060;2023-08-01T13:49:47;2.20;;;2.10;;
4001;SDS011;2015;48.670;9.060;2023-08-01T13:52:19;2.53;;;2.43;;
4001;SDS011;2015;48.670;9.060;2023-08-01T13:54:51;2.20;;;1.80;;
4001;SDS011;2015;48.670;9.060;2023-08-01T13:57:22;2.50;;;2.30;;
4001;SDS011;2015;48.670;9.060;2023-08-01T13:59:55;3.20;;;1.80;;
4001;SDS011;2015;48.670;9.060;2023-08-01T14:02:42;1.83;;;1.73;;
4001;SDS011;2015;48.670;9.060;2023-08-01T14:05:14;2.67;;;2.43;;
4001;SDS011;2015;48.670;9.060;2023-08-01T14:07:46;2.50;;;2.30;;
4001;SDS011;2015;48.670;9.060;2023-08-01T14:10:18;4.50;;;2.70;;
4001;SDS011;2015;48.670;9.060;2023-08-01T14:12:50;2.00;;;1.90;;
4001;SDS011;2015;48.670;9.060;2023-08-01T14:15:22;2.20;;;2.00;;
4001;SDS011;2015;48.670;9.060;2023-08-01T14:17:54;2.30;;;2.20;;
4001;SDS011;2015;48.670;9.060;2023-08-01T14:20:26;3.30;;;3.10;;
4001;SDS011;2015;48.670;9.060;2023-08-01T14:22:57;2.80;;;2.17;;
4001;SDS011;2015;48.670;9.060;2023-08-01T14:25:29;2.87;;;2.77;;
4001;SDS011;2015;48.670;9.060;2023-08-01T14:28:02;2.40;;;2.20;;
4001;SDS011;2015;48.670;9.060;2023-08-01T14:30:34;2.72;;;2.33;;
4001;SDS011;2015;48.670;9.060;2023-08-01T14:33:06;2.53;;;2.10;;
4001;SDS011;2015;48.670;9.060;2023-08-01T14:35:39;1.80;;;1.70;;
4001;SDS011;2015;48.670;9.060;2023-08-01T14:38:11;2.10;;;1.90;;
4001;SDS011;2015;48.670;9.060;2023-08-01T14:40:43;2.60;;;2.40;;
4001;SDS011;2015;48.670;9.060;2023-08-01T14:43:32;2.40;;;2.20;;
4001;SDS011;2015;48.670;9.060;2023-08-01T14:46:04;2.57;;;2.47;;
4001;SDS011;2015;48.670;9.060;2023-08-01T14:48:35;3.90;;;2.00;;
4001;SDS011;2015;48.670;9.060;2023-08-01T14:51:07;2.77;;;2.57;;
4001;SDS011;2015;48.670;9.060;2023-08-01T14:53:39;2.27;;;2.17;;
4001;SDS011;2015;48.670;9.060;2023-08-01T14:56:10;2.10;;;2.00;;
4001;SDS011;2015;48.670;9.060;2023-08-01T14:58:42;2.30;;;2.10;;
4001;SDS011;2015;48.670;9.060;2023-08-01T15:01:14;1.90;;;1.80;;
4001;SDS011;2015;48.670;9.060;2023-08-01T15:03:46;2.37;;;2.17;;
4001;SDS011;2015;48.670;9.060;2023-08-01T15:06:18;2.20;;;2.00;;
4001;SDS011;2015;48.670;9.060;2023-08-01T15:08:50;5.43;;;2.17;;
4001;SDS011;2015;48.670;9.060;2023-08-01T15:11:22;11.30;;;5.13;;
4001;SDS011;2015;48.670;9.060;2023-08-01T15:13:53;2.50;;;2.30;;
4001;SDS011;2015;48.670;9.060;2023-08-01T15:16:25;3.60;;;2.13;;
4001;SDS011;2015;48.670;9.060;2023-08-01T15:18:57;2.37;;;1.93;;
4001;SDS011;2015;48.670;9.060;2023-08-01T15:21:29;2.40;;;2.10;;
4001;SDS011;2015;48.670;9.060;2023-08-01T15:24:00;2.57;;;2.37;;
4001;SDS011;2015;48.670;9.060;2023-08-01T15:26:32;2.97;;;2.77;;
4001;SDS011;2015;48.670;9.060;2023-08-01T15:29:04;2.70;;;1.70;;
4001;SDS011;2015;48.670;9.060;2023-08-01T15:31:35;4.03;;;2.10;;
4001;SDS011;2015;48.670;9.060;2023-08-01T15:34:07;3.50;;;2.20;;
4001;SDS011;2015;48.670;9.060;2023-08-01T15:36:39;2.10;;;1.90;;
4001;SDS011;2015;48.670;9.060;2023-08-01T15:39:17;2.50;;;2.40;;
4001;SDS011;2015;48.670;9.060;2023-08-01T15:41:48;3.23;;;2.13;;
4001;SDS011;2015;48.670;9.060;2023-08-01T15:44:21;2.43;;;2.23;;
4001;SDS011;2015;48.670;9.060;2023-08-01T15:46:52;2.20;;;2.10;;
4001;SDS011;2015;48.670;9.060;2023-08-01T15:49:24;2.20;;;2.00;;